Time;durP1;ratioP1;P1;durP2;ratioP2;P2;SDS_P1;SDS_P2;PMS_P1;PMS_P2;Temp;Humidity;BMP_temperature;BMP_pressure;BME280_temperature;BME280_humidity;BME280_pressure;Samples;Min_cycle;Max_cycle;Signal;HPM_P1;HPM_P2
2022/10/03 00:00:00;;;;;;;1.75;0.60;;;;;;;11.51;100.00;97344.47;5071903;28;20036;-74
2022/10/03 00:02:46;;;;;;;0.70;0.50;;;;;;;11.57;100.00;97362.22;5061667;28;20040;-71
2022/10/03 00:05:40;;;;;;;0.85;0.50;;;;;;;11.67;100.00;97366.38;5068503;28;20028;-71
2022/10/03 00:08:16;;;;;;;5.97;1.55;;;;;;;11.81;100.00;97365.88;5066399;28;20036;-70
2022/10/03 00:11:06;;;;;;;1.60;0.80;;;;;;;11.79;100.00;97365.47;5073537;28;20032;-73
2022/10/03 00:13:47;;;;;;;2.53;0.88;;;;;;;11.68;100.00;97373.44;5065303;28;20068;-74
2022/10/03 00:16:35;;;;;;;2.22;0.68;;;;;;;11.65;100.00;97385.16;5057498;28;20044;-75
2022/10/03 00:19:30;;;;;;;2.67;0.88;;;;;;;11.70;100.00;97379.38;5052281;28;20110;-73
2022/10/03 00:22:27;;;;;;;4.72;1.05;;;;;;;11.67;100.00;97377.38;5067208;28;20036;-72
2022/10/03 00:24:59;;;;;;;2.13;0.75;;;;;;;11.36;100.00;97381.75;5056888;28;20033;-73
2022/10/03 00:27:42;;;;;;;0.68;0.60;;;;;;;11.43;100.00;97379.16;5068467;28;20048;-73
2022/10/03 00:30:15;;;;;;;2.60;0.90;;;;;;;11.45;100.00;97378.78;5063444;28;20040;-72
2022/10/03 00:32:50;;;;;;;1.48;0.68;;;;;;;11.46;100.00;97377.66;5059482;28;20040;-72
2022/10/03 00:35:42;;;;;;;3.42;1.02;;;;;;;11.42;100.00;97394.03;5070411;28;20100;-71
2022/10/03 00:38:29;;;;;;;1.48;0.68;;;;;;;11.26;100.00;97393.25;5062815;28;20036;-72
2022/10/03 00:41:16;;;;;;;4.43;0.73;;;;;;;11.36;100.00;97395.47;5068643;28;20437;-72
2022/10/03 00:43:45;;;;;;;0.80;0.80;;;;;;;11.50;100.00;97402.44;5073802;28;20036;-71
2022/10/03 00:46:13;;;;;;;2.47;0.90;;;;;;;11.53;100.00;97402.50;5056353;28;20072;-72
2022/10/03 00:49:00;;;;;;;1.25;0.85;;;;;;;11.41;100.00;97408.88;5070852;28;21255;-71
2022/10/03 00:51:53;;;;;;;1.88;0.90;;;;;;;11.45;100.00;97414.44;5070272;28;20055;-72
2022/10/03 00:54:51;;;;;;;5.53;0.85;;;;;;;11.52;100.00;97414.63;5068824;28;20047;-76
2022/10/03 00:57:49;;;;;;;6.18;1.00;;;;;;;11.61;100.00;97418.00;5067702;28;20119;-72
2022/10/03 01:00:23;;;;;;;3.30;1.33;;;;;;;11.68;100.00;97420.09;5058505;28;20093;-71
2022/10/03 01:02:58;;;;;;;1.92;1.30;;;;;;;11.64;100.00;97424.72;5050431;28;20044;-70
2022/10/03 01:05:33;;;;;;;3.30;1.10;;;;;;;11.78;100.00;97427.78;5065916;28;20063;-71
2022/10/03 01:08:23;;;;;;;2.22;1.17;;;;;;;11.76;100.00;97418.34;5076081;28;20040;-71
2022/10/03 01:11:01;;;;;;;2.30;1.60;;;;;;;11.59;100.00;97427.72;5083566;28;20512;-71
2022/10/03 01:13:36;;;;;;;4.82;2.05;;;;;;;11.51;100.00;97428.72;5063789;28;20051;-71
2022/10/03 01:16:12;;;;;;;2.20;1.20;;;;;;;11.59;100.00;97430.47;5062844;28;20105;-70
2022/10/03 01:18:56;;;;;;;27.83;15.38;;;;;;;11.50;100.00;97443.56;5070291;28;20146;-71
2022/10/03 01:21:27;;;;;;;13.10;4.43;;;;;;;11.27;100.00;97444.19;5064691;28;20040;-73
2022/10/03 01:24:17;;;;;;;3.00;1.92;;;;;;;11.31;100.00;97449.75;5074731;28;20044;-72
2022/10/03 01:26:53;;;;;;;2.17;1.60;;;;;;;11.62;100.00;97455.25;5068244;28;20104;-72
2022/10/03 01:32:37;;;;;;;4.10;1.88;;;;;;;11.52;100.00;97444.00;5060766;28;20513;-71
2022/10/03 01:35:11;;;;;;;2.88;1.75;;;;;;;11.66;100.00;97442.41;5065981;28;20064;-71
2022/10/03 01:38:05;;;;;;;3.08;1.65;;;;;;;11.60;100.00;97445.78;5083702;28;20493;-74
2022/10/03 01:40:39;;;;;;;3.03;1.80;;;;;;;11.58;100.00;97445.34;5085020;28;20490;-73
2022/10/03 01:43:35;;;;;;;4.13;2.00;;;;;;;11.65;100.00;97442.78;5073604;28;20052;-72
2022/10/03 01:46:11;;;;;;;2.90;2.10;;;;;;;11.69;100.00;97440.91;5094869;28;20020;-72
2022/10/03 01:48:46;;;;;;;3.55;2.22;;;;;;;11.62;100.00;97430.56;5077660;28;20048;-72
2022/10/03 01:51:23;;;;;;;5.93;2.13;;;;;;;11.39;100.00;97438.59;5072121;28;20032;-72
2022/10/03 01:54:28;;;;;;;4.35;2.10;;;;;;;11.08;100.00;97437.44;5072223;28;20208;-72
2022/10/03 01:57:12;;;;;;;5.97;2.10;;;;;;;10.94;100.00;97445.28;5077943;28;20056;-72
2022/10/03 02:00:00;;;;;;;4.47;2.40;;;;;;;10.81;100.00;97450.03;5072165;28;20490;-72
2022/10/03 02:02:37;;;;;;;3.90;2.20;;;;;;;10.70;100.00;97448.94;5042365;28;20117;-70
2022/10/03 02:05:11;;;;;;;4.72;2.08;;;;;;;10.62;100.00;97453.41;5056398;28;20396;-71
2022/10/03 02:07:54;;;;;;;2.88;2.10;;;;;;;10.58;100.00;97462.69;5063827;28;20110;-71
2022/10/03 02:10:43;;;;;;;3.78;2.00;;;;;;;10.60;100.00;97476.84;5075830;28;20028;-70
2022/10/03 02:13:15;;;;;;;3.42;2.00;;;;;;;10.60;100.00;97474.88;5066120;28;20036;-72
2022/10/03 02:16:04;;;;;;;3.60;1.88;;;;;;;10.53;100.00;97477.41;5071420;28;20156;-73
2022/10/03 02:18:50;;;;;;;2.78;1.55;;;;;;;10.52;100.00;97471.16;5046348;28;20135;-71
2022/10/03 02:21:22;;;;;;;4.55;2.33;;;;;;;10.51;100.00;97472.31;5059212;28;20051;-72
2022/10/03 02:24:03;;;;;;;1.88;1.33;;;;;;;10.50;100.00;97465.22;5065522;28;20043;-72
2022/10/03 02:27:19;;;;;;;3.88;1.23;;;;;;;10.51;100.00;97474.22;5061981;28;20044;-72
2022/10/03 02:29:57;;;;;;;2.60;1.40;;;;;;;10.54;100.00;97467.28;5064238;28;20052;-71
2022/10/03 02:33:03;;;;;;;2.05;1.48;;;;;;;10.59;100.00;97459.59;5052062;28;20048;-72
2022/10/03 02:36:06;;;;;;;3.28;1.40;;;;;;;10.74;100.00;97469.03;5056619;28;20111;-72
2022/10/03 02:38:38;;;;;;;2.75;1.33;;;;;;;10.87;100.00;97462.31;5060459;28;20525;-72
2022/10/03 02:41:31;;;;;;;2.25;2.05;;;;;;;10.96;100.00;97470.41;5059010;28;20429;-73
2022/10/03 02:44:30;;;;;;;3.03;1.30;;;;;;;11.02;100.00;97474.50;5058073;28;20058;-73
2022/10/03 02:47:14;;;;;;;2.63;1.45;;;;;;;11.04;100.00;97460.44;5043857;28;20124;-73
2022/10/03 02:49:58;;;;;;;4.38;1.77;;;;;;;10.94;100.00;97463.69;5054441;28;20068;-72
2022/10/03 02:52:27;;;;;;;3.65;1.67;;;;;;;10.83;100.00;97468.88;5072087;28;20125;-71
2022/10/03 02:55:08;;;;;;;5.00;1.50;;;;;;;10.73;100.00;97472.88;5050565;28;20052;-70
2022/10/03 02:58:10;;;;;;;3.30;1.67;;;;;;;10.65;100.00;97466.44;5059561;28;20383;-70
2022/10/03 03:00:54;;;;;;;3.28;2.08;;;;;;;10.61;100.00;97470.22;5051082;28;20182;-70
2022/10/03 03:04:04;;;;;;;2.80;1.60;;;;;;;10.55;100.00;97479.81;5046634;28;20041;-69
2022/10/03 03:07:09;;;;;;;4.90;1.95;;;;;;;10.54;100.00;97475.50;5057583;28;20102;-71
2022/10/03 03:10:12;;;;;;;5.38;1.83;;;;;;;10.51;100.00;97472.31;5061508;28;20043;-71
2022/10/03 03:13:10;;;;;;;3.53;2.20;;;;;;;10.31;100.00;97473.25;5061634;28;21031;-72
2022/10/03 03:16:21;;;;;;;4.75;2.40;;;;;;;10.23;100.00;97479.66;5056727;28;20041;-72
2022/10/03 03:19:12;;;;;;;6.80;2.70;;;;;;;10.23;100.00;97479.66;5061987;28;20037;-72
2022/10/03 03:21:50;;;;;;;8.10;2.70;;;;;;;10.21;100.00;97490.13;5059848;28;20044;-71
2022/10/03 03:24:27;;;;;;;3.55;2.47;;;;;;;10.19;100.00;97485.03;5045543;28;20524;-72
2022/10/03 03:27:20;;;;;;;4.40;2.58;;;;;;;10.17;100.00;97486.50;5060964;28;20044;-72
2022/10/03 03:29:52;;;;;;;4.75;2.67;;;;;;;10.09;100.00;97490.97;5051752;28;20059;-72
2022/10/03 03:32:27;;;;;;;7.95;3.42;;;;;;;10.06;100.00;97497.91;5062215;28;20040;-71
2022/10/03 03:35:17;;;;;;;7.00;3.15;;;;;;;10.02;100.00;97507.16;5060771;28;20048;-72
2022/10/03 03:37:48;;;;;;;4.57;3.22;;;;;;;10.02;100.00;97505.22;5040040;28;20513;-71
2022/10/03 03:40:44;;;;;;;8.52;3.00;;;;;;;9.97;100.00;97505.44;5035836;28;20390;-71
2022/10/03 03:43:28;;;;;;;8.68;3.28;;;;;;;10.00;100.00;97509.44;5057138;28;20044;-71
2022/10/03 03:46:28;;;;;;;11.13;2.85;;;;;;;9.99;100.00;97514.09;5056118;28;20037;-71
2022/10/03 03:49:03;;;;;;;7.97;3.08;;;;;;;9.95;100.00;97502.25;5042393;28;20091;-70
2022/10/03 03:51:52;;;;;;;5.78;2.97;;;;;;;9.90;100.00;97503.28;5053542;28;20040;-70
2022/10/03 03:54:43;;;;;;;7.20;3.35;;;;;;;9.89;100.00;97512.63;5054723;28;20036;-70
2022/10/03 03:57:24;;;;;;;6.20;3.47;;;;;;;9.87;100.00;97506.72;5055357;28;20045;-71
2022/10/03 04:00:13;;;;;;;6.40;3.47;;;;;;;9.87;100.00;97503.97;5064374;28;20063;-73
2022/10/03 04:02:45;;;;;;;9.60;3.63;;;;;;;9.88;100.00;97502.81;5051216;28;20540;-72
2022/10/03 04:05:33;;;;;;;7.40;3.35;;;;;;;9.90;100.00;97505.22;5055761;28;20032;-71
2022/10/03 04:08:24;;;;;;;8.00;3.33;;;;;;;9.88;100.00;97500.06;5043418;28;20330;-71
2022/10/03 04:11:17;;;;;;;6.18;3.53;;;;;;;9.85;100.00;97491.75;5054651;28;20036;-72
2022/10/03 04:14:31;;;;;;;7.70;3.83;;;;;;;9.82;100.00;97498.72;5059519;28;20055;-72
2022/10/03 04:20:20;;;;;;;8.57;3.85;;;;;;;9.84;100.00;97498.38;5056467;28;20044;-71
2022/10/03 04:22:48;;;;;;;4.85;3.58;;;;;;;9.85;100.00;97491.75;5055137;28;20044;-72
2022/10/03 04:25:34;;;;;;;9.38;4.03;;;;;;;9.89;100.00;97484.47;5050226;28;20065;-73
2022/10/03 04:28:03;;;;;;;7.82;4.30;;;;;;;10.02;100.00;97479.78;5059004;28;20074;-72
2022/10/03 04:30:31;;;;;;;7.47;3.88;;;;;;;10.19;100.00;97481.47;5058460;28;20036;-73
2022/10/03 04:33:24;;;;;;;9.18;3.67;;;;;;;10.16;100.00;97490.38;5058986;28;20135;-73
2022/10/03 04:35:55;;;;;;;8.52;3.78;;;;;;;10.23;100.00;97482.38;5052999;28;20501;-72
2022/10/03 04:38:43;;;;;;;6.10;3.75;;;;;;;10.48;100.00;97492.16;5074556;28;20052;-71
2022/10/03 04:41:22;;;;;;;6.82;3.85;;;;;;;10.57;100.00;97486.56;5076523;28;20036;-71
2022/10/03 04:44:04;;;;;;;10.10;5.33;;;;;;;10.38;100.00;97489.13;5072864;28;20056;-72
2022/10/03 04:46:51;;;;;;;8.10;3.97;;;;;;;10.17;100.00;97486.50;5062685;28;20366;-71
2022/10/03 04:49:32;;;;;;;12.27;5.30;;;;;;;10.00;100.00;97490.28;5058609;28;20047;-71
2022/10/03 04:52:24;;;;;;;8.52;3.85;;;;;;;9.85;100.00;97486.28;5066199;28;20040;-72
2022/10/03 04:54:55;;;;;;;6.97;4.68;;;;;;;9.76;100.00;97491.91;5044491;28;20044;-71
2022/10/03 04:57:50;;;;;;;10.10;4.10;;;;;;;9.79;100.00;97491.19;5056648;28;20036;-71
2022/10/03 05:00:27;;;;;;;12.68;4.70;;;;;;;9.85;100.00;97491.75;5053743;28;20507;-70
2022/10/03 05:03:13;;;;;;;12.02;5.18;;;;;;;9.73;100.00;97489.81;5063808;28;20062;-74
2022/10/03 05:05:47;;;;;;;8.77;4.78;;;;;;;9.72;100.00;97491.78;5064765;28;20053;-74
2022/10/03 05:08:54;;;;;;;7.68;4.70;;;;;;;9.80;100.00;97492.00;5055409;28;20048;-71
2022/10/03 05:11:47;;;;;;;9.27;5.45;;;;;;;9.66;100.00;97492.34;5055928;28;20048;-71
2022/10/03 05:14:27;;;;;;;14.27;5.40;;;;;;;9.53;100.00;97489.59;5055878;28;20063;-69
2022/10/03 05:17:24;;;;;;;10.65;5.65;;;;;;;9.48;100.00;97497.22;5080716;28;20108;-72
2022/10/03 05:20:02;;;;;;;8.85;5.10;;;;;;;9.50;100.00;97495.72;5080401;28;20573;-69
2022/10/03 05:22:55;;;;;;;9.85;5.65;;;;;;;9.64;100.00;97498.13;5079275;28;20063;-72
2022/10/03 05:25:32;;;;;;;18.20;7.75;;;;;;;9.82;100.00;97495.97;5071353;28;20056;-71
2022/10/03 05:28:37;;;;;;;23.17;10.30;;;;;;;9.77;100.00;97497.00;5065907;28;20043;-72
2022/10/03 05:31:21;;;;;;;13.20;5.80;;;;;;;9.69;100.00;97508.06;5058459;28;20503;-72
2022/10/03 05:34:05;;;;;;;11.73;5.70;;;;;;;9.63;100.00;97509.41;5063034;28;20045;-72
2022/10/03 05:37:13;;;;;;;12.88;6.40;;;;;;;9.62;100.00;97516.03;5075723;28;20036;-71
2022/10/03 05:39:54;;;;;;;14.85;6.68;;;;;;;9.64;100.00;97521.97;5052213;28;20051;-70
2022/10/03 05:42:34;;;;;;;14.65;6.32;;;;;;;9.66;100.00;97515.00;5072765;28;20047;-69
2022/10/03 05:45:08;;;;;;;9.82;5.63;;;;;;;9.66;100.00;97506.81;5080679;28;20044;-69
2022/10/03 05:48:00;;;;;;;10.93;6.30;;;;;;;9.70;100.00;97520.59;5061628;28;20040;-71
2022/10/03 05:50:41;;;;;;;11.35;6.32;;;;;;;9.68;100.00;97528.34;5058026;28;20044;-72
2022/10/03 05:53:25;;;;;;;14.80;6.00;;;;;;;9.74;100.00;97526.97;5039758;28;20667;-73
2022/10/03 05:56:14;;;;;;;10.85;6.10;;;;;;;9.69;100.00;97528.00;5060660;28;20044;-71
2022/10/03 05:59:01;;;;;;;9.45;5.53;;;;;;;9.74;100.00;97533.25;5041881;28;20056;-70
2022/10/03 06:01:48;;;;;;;10.48;6.60;;;;;;;9.81;100.00;97540.88;5065134;28;20060;-71
2022/10/03 06:04:40;;;;;;;8.85;5.70;;;;;;;9.93;100.00;97538.16;5071235;28;20096;-71
2022/10/03 06:07:21;;;;;;;12.68;6.75;;;;;;;10.13;100.00;97544.66;5030395;28;20040;-72
2022/10/03 06:10:08;;;;;;;9.55;6.32;;;;;;;10.26;100.00;97555.59;5041731;28;20580;-72
2022/10/03 06:12:59;;;;;;;10.75;5.82;;;;;;;10.49;100.00;97551.25;5042085;28;20481;-72
2022/10/03 06:15:33;;;;;;;12.70;6.20;;;;;;;10.41;100.00;97565.13;5035273;28;20135;-70
2022/10/03 06:18:02;;;;;;;10.60;5.47;;;;;;;10.36;100.00;97562.59;5054127;28;20579;-72
2022/10/03 06:21:02;;;;;;;8.55;5.95;;;;;;;10.35;100.00;97561.00;5057192;28;20049;-72
2022/10/03 06:23:57;;;;;;;10.95;5.70;;;;;;;10.21;100.00;97569.53;5053481;28;20041;-72
2022/10/03 06:26:50;;;;;;;9.88;5.60;;;;;;;10.21;100.00;97566.78;5036959;28;20071;-72
2022/10/03 06:29:30;;;;;;;7.22;5.22;;;;;;;10.42;100.00;97578.44;5060923;28;20037;-72
2022/10/03 06:35:00;;;;;;;10.82;7.50;;;;;;;10.40;100.00;97579.94;5023833;28;20414;-72
2022/10/03 06:37:47;;;;;;;13.73;8.60;;;;;;;10.49;100.00;97581.38;5029521;28;20135;-72
2022/10/03 06:40:25;;;;;;;12.45;8.13;;;;;;;10.88;100.00;97583.72;5013012;28;20037;-72
2022/10/03 06:43:09;;;;;;;14.02;5.95;;;;;;;11.24;100.00;97584.75;5028372;28;20042;-72
2022/10/03 06:46:08;;;;;;;11.68;5.30;;;;;;;11.50;100.00;97583.47;5033238;28;20041;-71
2022/10/03 06:48:40;;;;;;;7.77;5.40;;;;;;;11.78;100.00;97586.19;5035629;28;20368;-72
2022/10/03 06:51:37;;;;;;;10.32;5.65;;;;;;;11.99;100.00;97597.75;5033941;28;20044;-71
2022/10/03 06:54:15;;;;;;;9.75;5.25;;;;;;;12.17;100.00;97587.19;5030379;28;20041;-71
2022/10/03 06:57:02;;;;;;;9.65;4.88;;;;;;;12.04;100.00;97604.91;5035330;28;20503;-71
2022/10/03 06:59:39;;;;;;;8.98;4.68;;;;;;;12.14;100.00;97607.13;5032735;28;20737;-71
2022/10/03 07:02:26;;;;;;;11.15;5.65;;;;;;;12.23;100.00;97606.94;5039358;28;20132;-71
2022/10/03 07:05:01;;;;;;;13.23;5.63;;;;;;;12.43;100.00;97603.09;5034087;28;20128;-70
2022/10/03 07:07:32;;;;;;;6.70;4.20;;;;;;;12.56;100.00;97606.53;5024858;28;20499;-71
2022/10/03 07:10:26;;;;;;;6.60;4.10;;;;;;;12.53;100.00;97612.78;5040333;28;20124;-71
2022/10/03 07:13:33;;;;;;;6.03;3.97;;;;;;;12.65;100.00;97616.56;5023888;28;20046;-72
2022/10/03 07:16:43;;;;;;;5.38;3.45;;;;;;;12.78;100.00;97618.03;4979327;28;20065;-70
2022/10/03 07:19:14;;;;;;;;;;;;;;;12.77;100.00;97619.97;4986793;28;20042;-70
2022/10/03 07:22:07;;;;;;;9.63;4.72;;;;;;;12.31;100.00;97627.13;5018024;28;19920;-70
2022/10/03 07:24:51;;;;;;;35.67;25.20;;;;;;;12.33;100.00;97622.09;5022620;28;20613;-70
2022/10/03 07:27:38;;;;;;;23.05;15.98;;;;;;;12.68;100.00;97619.38;5036293;28;20044;-71
2022/10/03 07:30:12;;;;;;;9.10;4.65;;;;;;;13.17;100.00;97624.38;5034200;28;20029;-71
2022/10/03 07:33:22;;;;;;;17.30;8.40;;;;;;;12.58;100.00;97626.22;5020624;28;20165;-71
2022/10/03 07:39:32;;;;;;;6.40;4.72;;;;;;;13.22;100.00;97619.72;5010228;28;20049;-71
2022/10/03 07:42:14;;;;;;;6.63;3.83;;;;;;;13.64;100.00;97635.53;5011255;28;20132;-70
2022/10/03 07:45:11;;;;;;;14.18;6.35;;;;;;;14.07;100.00;97630.81;5021154;28;20132;-71
2022/10/03 07:48:12;;;;;;;12.52;8.73;;;;;;;12.93;100.00;97636.44;5019197;28;20390;-71
2022/10/03 07:50:58;;;;;;;8.27;5.25;;;;;;;13.76;100.00;97636.19;5026161;28;20502;-71
2022/10/03 07:53:42;;;;;;;7.15;3.60;;;;;;;14.42;100.00;97644.41;5010846;28;20048;-71
2022/10/03 07:56:25;;;;;;;11.93;3.63;;;;;;;14.74;100.00;97646.91;5013006;28;20506;-71
2022/10/03 07:59:21;;;;;;;9.18;5.00;;;;;;;14.75;100.00;97647.69;5020747;28;20049;-71
2022/10/03 08:02:08;;;;;;;44.17;22.70;;;;;;;14.98;100.00;97650.38;5011369;28;20051;-71
2022/10/03 08:05:09;;;;;;;8.70;3.78;;;;;;;15.13;100.00;97649.44;5024299;28;20391;-71
2022/10/03 08:08:11;;;;;;;8.45;3.08;;;;;;;15.34;100.00;97657.22;5021854;28;20099;-71
2022/10/03 08:11:15;;;;;;;6.60;3.33;;;;;;;15.41;100.00;97650.97;5008250;28;20517;-70
2022/10/03 08:13:59;;;;;;;6.38;3.72;;;;;;;15.73;100.00;97648.56;5033955;28;20048;-71
2022/10/03 08:16:58;;;;;;;6.78;4.20;;;;;;;15.44;100.00;97647.47;5024398;28;20442;-71
2022/10/03 08:19:26;;;;;;;7.55;3.80;;;;;;;14.99;100.00;97647.25;5010991;28;20076;-71
2022/10/03 08:21:52;;;;;;;14.50;9.88;;;;;;;14.30;100.00;97650.91;5020991;28;20044;-71
2022/10/03 08:24:20;;;;;;;7.70;4.93;;;;;;;13.02;100.00;97641.75;5014421;28;20045;-71
2022/10/03 08:27:25;;;;;;;14.27;6.95;;;;;;;13.33;100.00;97642.81;5014072;28;20099;-72
2022/10/03 08:30:18;;;;;;;9.00;3.13;;;;;;;14.28;100.00;97644.19;4982094;28;20040;-70
2022/10/03 08:32:56;;;;;;;5.65;3.10;;;;;;;14.89;100.00;97643.19;5013103;28;20487;-70
2022/10/03 08:35:46;;;;;;;8.82;4.13;;;;;;;14.33;100.00;97636.41;5017642;28;20064;-70
2022/10/03 08:38:37;;;;;;;7.20;5.43;;;;;;;14.70;100.00;97652.34;5010277;28;20103;-70
2022/10/03 08:41:12;;;;;;;6.07;2.40;;;;;;;16.01;100.00;97645.34;5006398;28;20038;-72
2022/10/03 08:43:37;;;;;;;12.95;5.82;;;;;;;13.72;100.00;97649.09;5014035;28;20045;-70
2022/10/03 08:46:25;;;;;;;12.32;5.78;;;;;;;14.13;100.00;97641.19;5016758;28;20072;-71
2022/10/03 08:49:02;;;;;;;9.65;4.13;;;;;;;15.12;100.00;97645.06;5023945;28;20064;-70
2022/10/03 08:51:56;;;;;;;7.78;3.15;;;;;;;14.94;100.00;97635.75;5041543;28;20045;-72
2022/10/03 08:54:36;;;;;;;7.93;3.88;;;;;;;14.41;100.00;97637.31;5020113;28;20112;-71
2022/10/03 08:57:06;;;;;;;15.50;7.25;;;;;;;15.24;100.00;97636.56;5015598;28;20051;-72
2022/10/03 08:59:54;;;;;;;14.10;6.95;;;;;;;15.48;100.00;97640.81;5016427;28;20044;-70
2022/10/03 09:02:47;;;;;;;16.63;8.55;;;;;;;14.75;100.00;97633.91;5015445;28;20152;-71
2022/10/03 09:05:15;;;;;;;9.40;3.78;;;;;;;14.10;100.00;97633.66;5014662;28;20120;-71
2022/10/03 09:07:43;;;;;;;7.90;3.22;;;;;;;14.29;100.00;97626.47;5045611;28;20132;-71
2022/10/03 09:10:15;;;;;;;6.30;2.90;;;;;;;14.64;100.00;97636.50;5015237;28;20041;-70
2022/10/03 09:12:59;;;;;;;9.10;3.17;;;;;;;14.57;100.00;97625.31;5013222;28;20810;-70
2022/10/03 09:15:40;;;;;;;6.35;2.67;;;;;;;14.49;100.00;97629.94;5020930;28;20046;-71
2022/10/03 09:18:18;;;;;;;7.68;2.97;;;;;;;14.74;100.00;97622.06;5021560;28;20076;-72
2022/10/03 09:20:59;;;;;;;9.98;3.22;;;;;;;15.24;100.00;97624.72;5007842;28;20077;-70
2022/10/03 09:23:58;;;;;;;6.50;2.70;;;;;;;15.55;100.00;97631.03;5011379;28;20045;-70
2022/10/03 09:26:26;;;;;;;9.57;3.00;;;;;;;14.59;100.00;97623.03;5004044;28;20069;-69
2022/10/03 09:29:22;;;;;;;7.15;2.38;;;;;;;15.13;100.00;97623.81;5021876;28;20053;-70
2022/10/03 09:32:00;;;;;;;7.35;3.95;;;;;;;15.23;100.00;97604.63;5024214;28;20053;-70
2022/10/03 09:34:48;;;;;;;10.27;3.05;;;;;;;15.97;100.00;97625.19;5014676;28;20046;-71
2022/10/03 09:37:42;;;;;;;7.07;3.05;;;;;;;15.35;100.00;97619.34;5013270;28;20053;-71
2022/10/03 09:40:20;;;;;;;8.57;3.10;;;;;;;15.43;100.00;97619.06;5019350;28;20056;-71
2022/10/03 09:42:52;;;;;;;4.47;1.80;;;;;;;15.58;97.41;97617.25;5022261;28;20037;-70
2022/10/03 09:45:39;;;;;;;6.47;1.60;;;;;;;15.35;90.43;97617.38;5016408;28;20053;-71
2022/10/03 09:48:16;;;;;;;5.18;1.90;;;;;;;15.67;91.03;97614.19;5012089;28;20516;-71
2022/10/03 09:50:52;;;;;;;7.40;1.90;;;;;;;16.07;86.66;97614.63;5018463;28;20548;-70
2022/10/03 09:53:28;;;;;;;3.75;1.70;;;;;;;15.23;86.21;97615.66;5016805;28;20048;-70
2022/10/03 09:56:09;;;;;;;2.50;1.30;;;;;;;15.45;83.02;97607.66;4995855;28;20099;-70
2022/10/03 09:58:49;;;;;;;8.52;3.30;;;;;;;16.33;81.92;97606.16;5010457;28;20045;-69
2022/10/03 10:01:18;;;;;;;8.02;2.65;;;;;;;16.58;85.20;97603.59;5015352;28;20053;-70
2022/10/03 10:04:09;;;;;;;4.47;1.98;;;;;;;16.67;83.69;97599.69;5021984;28;20060;-70
2022/10/03 10:07:12;;;;;;;6.63;1.73;;;;;;;15.72;84.38;97600.06;5022052;28;20085;-70
2022/10/03 10:10:05;;;;;;;4.57;1.38;;;;;;;14.84;81.25;97602.13;4998879;28;20638;-70
2022/10/03 10:12:57;;;;;;;5.68;1.63;;;;;;;16.16;76.50;97601.28;5032004;28;20038;-71
2022/10/03 10:15:34;;;;;;;5.63;2.50;;;;;;;16.91;77.66;97599.09;5004678;28;20550;-71
2022/10/03 10:18:10;;;;;;;3.80;1.85;;;;;;;16.16;81.90;97587.47;5021771;28;20037;-71
2022/10/03 10:20:56;;;;;;;4.95;1.83;;;;;;;16.23;83.04;97596.59;5020887;28;20125;-70
2022/10/03 10:23:42;;;;;;;4.13;1.30;;;;;;;17.48;73.22;97587.44;5015891;28;20038;-71
2022/10/03 10:26:45;;;;;;;6.65;1.70;;;;;;;16.35;73.95;97592.75;4999699;28;20050;-70
2022/10/03 10:29:41;;;;;;;5.60;3.15;;;;;;;16.79;70.78;97591.84;4991716;28;20042;-70
2022/10/03 10:32:43;;;;;;;6.05;2.83;;;;;;;17.18;73.53;97588.53;5015015;28;20049;-71
2022/10/03 10:35:47;;;;;;;5.93;1.65;;;;;;;18.10;65.31;97589.19;5014013;28;20090;-71
2022/10/03 10:38:52;;;;;;;3.97;1.70;;;;;;;18.77;66.01;97589.56;4998323;28;20120;-70
2022/10/03 10:41:35;;;;;;;4.18;1.15;;;;;;;16.97;68.39;97585.66;5018271;28;20371;-68
2022/10/03 10:44:22;;;;;;;5.13;1.67;;;;;;;16.90;69.44;97580.88;5019689;28;20053;-71
2022/10/03 10:47:28;;;;;;;4.88;1.63;;;;;;;17.23;68.21;97592.13;5017492;28;20054;-70
2022/10/03 10:50:31;;;;;;;2.95;1.35;;;;;;;16.02;71.30;97588.91;5015301;28;20495;-71
2022/10/03 10:53:36;;;;;;;4.05;1.63;;;;;;;16.14;73.58;97582.31;5014818;28;20558;-71
2022/10/03 10:56:08;;;;;;;4.93;1.80;;;;;;;15.92;73.91;97586.88;5013189;28;20073;-71
2022/10/03 10:58:36;;;;;;;3.92;1.52;;;;;;;16.62;69.47;97581.50;5015526;28;20049;-71
2022/10/03 11:01:40;;;;;;;4.47;1.60;;;;;;;16.51;67.09;97583.38;5023025;28;20026;-71
2022/10/03 11:04:25;;;;;;;4.43;1.50;;;;;;;17.07;67.40;97581.34;5021282;28;20041;-71
2022/10/03 11:07:24;;;;;;;4.97;1.50;;;;;;;17.12;67.26;97581.00;5020442;28;20100;-71
2022/10/03 11:10:20;;;;;;;5.53;1.48;;;;;;;19.21;59.07;97570.81;5016737;28;20152;-70
2022/10/03 11:13:50;;;;;;;4.72;1.38;;;;;;;17.47;58.05;97579.56;5025240;28;20137;-70
2022/10/03 11:16:38;;;;;;;6.32;1.70;;;;;;;17.86;63.37;97579.69;4982838;28;20053;-70
2022/10/03 11:19:28;;;;;;;5.82;1.63;;;;;;;16.90;65.87;97578.13;5007724;28;20072;-70
2022/10/03 11:22:25;;;;;;;5.05;1.45;;;;;;;16.89;68.41;97584.03;4995530;28;20050;-69
2022/10/03 11:25:28;;;;;;;6.50;1.88;;;;;;;16.23;68.28;97576.47;5018686;28;20044;-70
2022/10/03 11:28:07;;;;;;;3.72;1.70;;;;;;;16.46;71.54;97581.78;5021649;28;20080;-70
2022/10/03 11:30:57;;;;;;;5.88;1.70;;;;;;;17.07;66.05;97579.41;4996195;28;20145;-70
2022/10/03 11:33:22;;;;;;;;;;;;;;;16.58;67.02;97577.91;4993387;28;20062;-70
2022/10/03 11:35:54;;;;;;;6.55;1.70;;;;;;;16.10;68.34;97573.22;5016691;28;19921;-71
2022/10/03 11:38:28;;;;;;;5.07;1.50;;;;;;;16.62;64.43;97573.97;5028890;28;20152;-70
2022/10/03 11:41:28;;;;;;;6.00;1.63;;;;;;;18.19;58.27;97563.88;5035018;28;20063;-71
2022/10/03 11:44:26;;;;;;;5.22;0.90;;;;;;;19.74;54.33;97569.00;5023710;28;20148;-70
2022/10/03 11:47:18;;;;;;;7.18;1.55;;;;;;;18.69;55.87;97565.78;5021745;28;20064;-70
2022/10/03 11:50:19;;;;;;;7.80;1.40;;;;;;;17.71;59.83;97555.88;5013898;28;20057;-70
2022/10/03 11:53:06;;;;;;;3.47;1.40;;;;;;;17.68;60.99;97560.22;4996445;28;20046;-70
2022/10/03 11:55:42;;;;;;;6.25;1.48;;;;;;;18.72;59.10;97556.66;5023337;28;20402;-70
2022/10/03 11:58:14;;;;;;;7.32;1.35;;;;;;;19.79;53.80;97555.47;5002535;28;20042;-69
2022/10/03 12:00:43;;;;;;;4.40;1.35;;;;;;;18.64;59.37;97553.13;5016818;28;20183;-69
2022/10/03 12:03:18;;;;;;;5.57;1.65;;;;;;;17.08;59.65;97553.31;5019040;28;20041;-69
2022/10/03 12:08:58;;;;;;;7.43;1.80;;;;;;;16.11;65.68;97557.41;5015619;28;20045;-69
2022/10/03 12:11:32;;;;;;;5.70;1.63;;;;;;;16.01;70.14;97558.91;5018011;28;20716;-69
2022/10/03 12:14:28;;;;;;;5.30;1.63;;;;;;;16.20;70.68;97558.66;5022954;28;20064;-69
2022/10/03 12:17:00;;;;;;;5.50;1.73;;;;;;;16.38;67.53;97563.53;5006025;28;20064;-69
2022/10/03 12:19:41;;;;;;;7.03;1.42;;;;;;;16.76;66.70;97555.88;5019170;28;20124;-71
2022/10/03 12:22:21;;;;;;;4.43;1.40;;;;;;;18.12;60.42;97550.00;5018329;28;20117;-71
2022/10/03 12:24:48;;;;;;;6.00;1.60;;;;;;;17.99;63.83;97541.28;5023083;28;20058;-70
2022/10/03 12:27:46;;;;;;;5.00;1.58;;;;;;;16.81;69.96;97544.44;5009223;28;20042;-70
2022/10/03 12:30:16;;;;;;;7.20;2.20;;;;;;;16.08;67.72;97534.13;5010736;28;20103;-70
2022/10/03 12:33:10;;;;;;;;;;;;;;;15.83;73.81;97531.94;5028981;28;20046;-70
2022/10/03 12:36:01;;;;;;;5.70;1.77;;;;;;;15.30;71.70;97537.66;4976098;28;19918;-70
2022/10/03 12:38:42;;;;;;;5.72;2.08;;;;;;;15.16;70.33;97529.22;4997331;28;20395;-71
2022/10/03 12:41:48;;;;;;;5.00;1.48;;;;;;;15.43;67.96;97547.28;5001878;28;20042;-71
2022/10/03 12:44:29;;;;;;;7.72;2.03;;;;;;;15.68;65.63;97530.97;5000129;28;20080;-71
2022/10/03 12:47:18;;;;;;;2.97;1.42;;;;;;;15.89;66.00;97534.34;5002541;28;20049;-70
2022/10/03 12:49:47;;;;;;;4.80;1.90;;;;;;;16.73;62.10;97538.09;5040938;28;20049;-69
2022/10/03 12:52:38;;;;;;;6.80;1.60;;;;;;;16.44;60.22;97532.38;5026276;28;20588;-71
2022/10/03 12:55:19;;;;;;;6.15;1.67;;;;;;;16.09;62.83;97538.44;5019429;28;20132;-71
2022/10/03 12:58:00;;;;;;;6.22;1.92;;;;;;;16.21;61.11;97532.63;5023668;28;20080;-70
2022/10/03 13:00:42;;;;;;;3.47;1.77;;;;;;;16.29;62.74;97516.88;5018137;28;20041;-70
2022/10/03 13:03:14;;;;;;;9.07;2.45;;;;;;;16.42;62.29;97523.69;5016804;28;20057;-70
2022/10/03 13:05:55;;;;;;;6.03;1.77;;;;;;;16.51;64.83;97512.28;5002435;28;20108;-70